Barada, Nebraska
Current Conditions -  °F | °C
As of 11:53 AM on Thursday 30 Oct 2014 (Local Time) from KFNB Reporting Station
Clear Clear  
Wind Chill: 62°   Ceiling: Unl
Heat Index: 62°   Visibility: 10mi
Dew Point: 39°   Wind: 14mph
Humidity: 43%   Direction: 330°NNW
Pressure: 30.05"   Gusts: 22mph
Location:  40.1276°N, 95.5661°W
Report Text: KFNB 301653Z AUTO 33012G19KT 10SM CLR 17/04 A3005 RMK AO2 SLP177 T01670039
Loading
Personal Weather Stations






























Interactive Weather Map
Tropical Storm Tracking
New forecast layout! Learn more

10-Day Weather Forecast

Advertisements
Track Severe Weather on mobile